sensor_id;sensor_type;location;lat;lon;timestamp;temperature;humidity
45409;DHT22;31162;51.076;3.784;2023-06-22T00:00:51;19.30;99.90
45409;DHT22;31162;51.076;3.784;2023-06-22T00:03:21;19.20;99.90
45409;DHT22;31162;51.076;3.784;2023-06-22T00:05:47;19.20;99.90
45409;DHT22;31162;51.076;3.784;2023-06-22T00:08:14;19.20;99.90
45409;DHT22;31162;51.076;3.784;2023-06-22T00:10:41;19.10;99.90
45409;DHT22;31162;51.076;3.784;2023-06-22T00:13:07;19.10;99.90
45409;DHT22;31162;51.076;3.784;2023-06-22T00:15:34;19.20;99.90
45409;DHT22;31162;51.076;3.784;2023-06-22T00:18:00;19.20;99.90
45409;DHT22;31162;51.076;3.784;2023-06-22T00:20:26;19.10;99.90
45409;DHT22;31162;51.076;3.784;2023-06-22T00:22:54;19.10;99.90
45409;DHT22;31162;51.076;3.784;2023-06-22T00:25:19;19.00;99.90
45409;DHT22;31162;51.076;3.784;2023-06-22T00:27:45;19.00;99.90
45409;DHT22;31162;51.076;3.784;2023-06-22T00:30:11;19.00;99.90
45409;DHT22;31162;51.076;3.784;2023-06-22T00:32:37;19.00;99.90
45409;DHT22;31162;51.076;3.784;2023-06-22T00:35:02;19.00;99.90
45409;DHT22;31162;51.076;3.784;2023-06-22T00:37:28;18.90;99.90
45409;DHT22;31162;51.076;3.784;2023-06-22T00:39:55;18.90;99.90
45409;DHT22;31162;51.076;3.784;2023-06-22T00:42:21;18.80;99.90
45409;DHT22;31162;51.076;3.784;2023-06-22T00:44:46;18.80;99.90
45409;DHT22;31162;51.076;3.784;2023-06-22T00:47:15;18.80;99.90
45409;DHT22;31162;51.076;3.784;2023-06-22T00:49:41;18.80;99.90
45409;DHT22;31162;51.076;3.784;2023-06-22T00:52:07;18.80;99.90
45409;DHT22;31162;51.076;3.784;2023-06-22T00:54:42;19.00;99.90
45409;DHT22;31162;51.076;3.784;2023-06-22T00:57:11;19.00;99.90
45409;DHT22;31162;51.076;3.784;2023-06-22T00:59:37;18.90;99.90
45409;DHT22;31162;51.076;3.784;2023-06-22T01:02:05;18.80;99.90
45409;DHT22;31162;51.076;3.784;2023-06-22T01:04:35;18.70;99.90
45409;DHT22;31162;51.076;3.784;2023-06-22T01:07:15;18.70;99.90
45409;DHT22;31162;51.076;3.784;2023-06-22T01:09:56;18.70;99.90
45409;DHT22;31162;51.076;3.784;2023-06-22T01:12:23;18.70;99.90
45409;DHT22;31162;51.076;3.784;2023-06-22T01:14:55;18.70;99.90
45409;DHT22;31162;51.076;3.784;2023-06-22T01:17:24;18.60;99.90
45409;DHT22;31162;51.076;3.784;2023-06-22T01:19:55;18.50;99.90
45409;DHT22;31162;51.076;3.784;2023-06-22T01:22:25;18.50;99.90
45409;DHT22;31162;51.076;3.784;2023-06-22T01:25:13;18.40;99.90
45409;DHT22;31162;51.076;3.784;2023-06-22T01:27:53;18.40;99.90
45409;DHT22;31162;51.076;3.784;2023-06-22T01:30:22;18.50;99.90
45409;DHT22;31162;51.076;3.784;2023-06-22T01:32:51;18.60;99.90
45409;DHT22;31162;51.076;3.784;2023-06-22T01:35:18;18.50;99.90
45409;DHT22;31162;51.076;3.784;2023-06-22T01:37:44;18.40;99.90
45409;DHT22;31162;51.076;3.784;2023-06-22T01:40:11;18.30;99.90
45409;DHT22;31162;51.076;3.784;2023-06-22T01:42:37;18.40;99.90
45409;DHT22;31162;51.076;3.784;2023-06-22T01:45:04;18.40;99.90
45409;DHT22;31162;51.076;3.784;2023-06-22T01:47:30;18.50;99.90
45409;DHT22;31162;51.076;3.784;2023-06-22T01:49:56;18.50;99.90
45409;DHT22;31162;51.076;3.784;2023-06-22T01:52:22;18.40;99.90
45409;DHT22;31162;51.076;3.784;2023-06-22T01:54:48;18.40;99.90
45409;DHT22;31162;51.076;3.784;2023-06-22T01:57:14;18.30;99.90
45409;DHT22;31162;51.076;3.784;2023-06-22T02:02:15;18.30;99.90
45409;DHT22;31162;51.076;3.784;2023-06-22T02:04:51;18.20;99.90
45409;DHT22;31162;51.076;3.784;2023-06-22T02:07:18;18.20;99.90
45409;DHT22;31162;51.076;3.784;2023-06-22T02:09:47;18.30;99.90
45409;DHT22;31162;51.076;3.784;2023-06-22T02:12:18;18.20;99.90
45409;DHT22;31162;51.076;3.784;2023-06-22T02:14:47;18.10;99.90
45409;DHT22;31162;51.076;3.784;2023-06-22T02:17:13;18.10;99.90
45409;DHT22;31162;51.076;3.784;2023-06-22T02:19:42;18.00;99.90
45409;DHT22;31162;51.076;3.784;2023-06-22T02:22:08;18.00;99.90
45409;DHT22;31162;51.076;3.784;2023-06-22T02:24:33;18.10;99.90
45409;DHT22;31162;51.076;3.784;2023-06-22T02:27:00;18.10;99.90
45409;DHT22;31162;51.076;3.784;2023-06-22T02:29:27;18.00;99.90
45409;DHT22;31162;51.076;3.784;2023-06-22T02:31:53;17.90;99.90
45409;DHT22;31162;51.076;3.784;2023-06-22T02:34:19;18.00;99.90
45409;DHT22;31162;51.076;3.784;2023-06-22T02:36:49;17.80;99.90
45409;DHT22;31162;51.076;3.784;2023-06-22T02:39:22;17.80;99.90
45409;DHT22;31162;51.076;3.784;2023-06-22T02:41:52;17.90;99.90
45409;DHT22;31162;51.076;3.784;2023-06-22T02:44:19;17.90;99.90
45409;DHT22;31162;51.076;3.784;2023-06-22T02:46:45;17.90;99.90
45409;DHT22;31162;51.076;3.784;2023-06-22T02:49:12;17.90;99.90
45409;DHT22;31162;51.076;3.784;2023-06-22T02:51:45;17.90;99.90
45409;DHT22;31162;51.076;3.784;2023-06-22T02:54:11;17.80;99.90
45409;DHT22;31162;51.076;3.784;2023-06-22T02:56:36;17.80;99.90
45409;DHT22;31162;51.076;3.784;2023-06-22T02:59:02;17.80;99.90
45409;DHT22;31162;51.076;3.784;2023-06-22T03:01:29;17.80;99.90
45409;DHT22;31162;51.076;3.784;2023-06-22T03:03:56;17.70;99.90
45409;DHT22;31162;51.076;3.784;2023-06-22T03:06:22;17.70;99.90
45409;DHT22;31162;51.076;3.784;2023-06-22T03:08:51;17.70;99.90
45409;DHT22;31162;51.076;3.784;2023-06-22T03:11:17;17.80;99.90
45409;DHT22;31162;51.076;3.784;2023-06-22T03:13:43;17.70;99.90
45409;DHT22;31162;51.076;3.784;2023-06-22T03:16:09;17.80;99.90
45409;DHT22;31162;51.076;3.784;2023-06-22T03:18:35;17.80;99.90
45409;DHT22;31162;51.076;3.784;2023-06-22T03:21:00;17.80;99.90
45409;DHT22;31162;51.076;3.784;2023-06-22T03:23:27;17.70;99.90
45409;DHT22;31162;51.076;3.784;2023-06-22T03:25:53;17.70;99.90
45409;DHT22;31162;51.076;3.784;2023-06-22T03:28:21;17.70;99.90
45409;DHT22;31162;51.076;3.784;2023-06-22T03:30:47;17.80;99.90
45409;DHT22;31162;51.076;3.784;2023-06-22T03:33:13;17.70;99.90
45409;DHT22;31162;51.076;3.784;2023-06-22T03:35:38;17.60;99.90
45409;DHT22;31162;51.076;3.784;2023-06-22T03:38:04;17.60;99.90
45409;DHT22;31162;51.076;3.784;2023-06-22T03:40:29;17.60;99.90
45409;DHT22;31162;51.076;3.784;2023-06-22T03:42:55;17.60;99.90
45409;DHT22;31162;51.076;3.784;2023-06-22T03:45:21;17.70;99.90
45409;DHT22;31162;51.076;3.784;2023-06-22T03:47:47;17.80;99.90
45409;DHT22;31162;51.076;3.784;2023-06-22T03:50:12;17.70;99.90
45409;DHT22;31162;51.076;3.784;2023-06-22T03:52:40;17.80;99.90
45409;DHT22;31162;51.076;3.784;2023-06-22T03:55:06;18.00;99.90
45409;DHT22;31162;51.076;3.784;2023-06-22T03:57:32;18.00;99.90
45409;DHT22;31162;51.076;3.784;2023-06-22T03:59:58;18.00;99.90
45409;DHT22;31162;51.076;3.784;2023-06-22T04:02:24;18.10;99.90
45409;DHT22;31162;51.076;3.784;2023-06-22T04:04:49;18.20;99.90
45409;DHT22;31162;51.076;3.784;2023-06-22T04:07:15;18.30;99.90
45409;DHT22;31162;51.076;3.784;2023-06-22T04:09:40;18.40;99.90
45409;DHT22;31162;51.076;3.784;2023-06-22T04:12:06;18.40;99.90
45409;DHT22;31162;51.076;3.784;2023-06-22T04:14:32;18.40;99.90
45409;DHT22;31162;51.076;3.784;2023-06-22T04:16:58;18.30;99.90
45409;DHT22;31162;51.076;3.784;2023-06-22T04:19:24;18.50;99.90
45409;DHT22;31162;51.076;3.784;2023-06-22T04:21:49;18.50;99.90
45409;DHT22;31162;51.076;3.784;2023-06-22T04:24:15;18.50;99.90
45409;DHT22;31162;51.076;3.784;2023-06-22T04:26:41;18.60;99.90
45409;DHT22;31162;51.076;3.784;2023-06-22T04:29:11;18.80;99.90
45409;DHT22;31162;51.076;3.784;2023-06-22T04:31:36;18.80;99.90
45409;DHT22;31162;51.076;3.784;2023-06-22T04:34:04;18.90;99.90
45409;DHT22;31162;51.076;3.784;2023-06-22T04:36:37;19.00;99.90
45409;DHT22;31162;51.076;3.784;2023-06-22T04:39:05;19.10;99.90
45409;DHT22;31162;51.076;3.784;2023-06-22T04:41:31;19.10;99.90
45409;DHT22;31162;51.076;3.784;2023-06-22T04:44:14;19.20;99.90
45409;DHT22;31162;51.076;3.784;2023-06-22T04:46:49;19.20;99.90
45409;DHT22;31162;51.076;3.784;2023-06-22T04:49:19;19.30;99.90
45409;DHT22;31162;51.076;3.784;2023-06-22T04:51:45;19.40;99.90
45409;DHT22;31162;51.076;3.784;2023-06-22T04:54:11;19.50;99.90
45409;DHT22;31162;51.076;3.784;2023-06-22T04:56:36;19.60;99.90
45409;DHT22;31162;51.076;3.784;2023-06-22T04:59:03;19.60;99.90
45409;DHT22;31162;51.076;3.784;2023-06-22T05:01:29;19.80;99.90
45409;DHT22;31162;51.076;3.784;2023-06-22T05:03:57;20.00;99.90
45409;DHT22;31162;51.076;3.784;2023-06-22T05:06:26;20.20;99.90
45409;DHT22;31162;51.076;3.784;2023-06-22T05:08:55;20.40;99.90
45409;DHT22;31162;51.076;3.784;2023-06-22T05:11:25;20.60;99.90
45409;DHT22;31162;51.076;3.784;2023-06-22T05:13:52;20.80;99.90
45409;DHT22;31162;51.076;3.784;2023-06-22T05:16:18;20.90;99.90
45409;DHT22;31162;51.076;3.784;2023-06-22T05:18:52;21.20;99.90
45409;DHT22;31162;51.076;3.784;2023-06-22T05:21:25;21.30;99.90
45409;DHT22;31162;51.076;3.784;2023-06-22T05:23:51;21.80;99.90
45409;DHT22;31162;51.076;3.784;2023-06-22T05:26:21;22.10;99.90
45409;DHT22;31162;51.076;3.784;2023-06-22T05:28:47;22.50;99.90
45409;DHT22;31162;51.076;3.784;2023-06-22T05:31:14;23.10;99.90
45409;DHT22;31162;51.076;3.784;2023-06-22T05:33:43;23.70;99.90
45409;DHT22;31162;51.076;3.784;2023-06-22T05:36:09;23.90;99.90
45409;DHT22;31162;51.076;3.784;2023-06-22T05:38:36;23.90;99.90
45409;DHT22;31162;51.076;3.784;2023-06-22T05:41:02;24.00;99.90
45409;DHT22;31162;51.076;3.784;2023-06-22T05:43:28;24.00;99.90
45409;DHT22;31162;51.076;3.784;2023-06-22T05:45:53;24.00;99.90
45409;DHT22;31162;51.076;3.784;2023-06-22T05:48:19;24.00;99.90
45409;DHT22;31162;51.076;3.784;2023-06-22T05:50:45;24.10;99.90
45409;DHT22;31162;51.076;3.784;2023-06-22T05:53:11;24.10;99.90
45409;DHT22;31162;51.076;3.784;2023-06-22T05:55:36;24.20;99.90
45409;DHT22;31162;51.076;3.784;2023-06-22T05:58:02;24.30;99.90
45409;DHT22;31162;51.076;3.784;2023-06-22T06:00:31;24.30;99.90
45409;DHT22;31162;51.076;3.784;2023-06-22T06:02:56;24.40;99.90
45409;DHT22;31162;51.076;3.784;2023-06-22T06:05:22;24.50;99.90
45409;DHT22;31162;51.076;3.784;2023-06-22T06:07:49;24.50;99.90
45409;DHT22;31162;51.076;3.784;2023-06-22T06:10:15;24.50;99.90
45409;DHT22;31162;51.076;3.784;2023-06-22T06:12:40;24.60;99.90
45409;DHT22;31162;51.076;3.784;2023-06-22T06:15:06;24.80;99.90
45409;DHT22;31162;51.076;3.784;2023-06-22T06:17:32;24.50;99.90
45409;DHT22;31162;51.076;3.784;2023-06-22T06:19:59;24.50;99.90
45409;DHT22;31162;51.076;3.784;2023-06-22T06:22:25;24.60;99.90
45409;DHT22;31162;51.076;3.784;2023-06-22T06:24:51;24.70;99.90
45409;DHT22;31162;51.076;3.784;2023-06-22T06:27:16;24.70;99.90
45409;DHT22;31162;51.076;3.784;2023-06-22T06:29:45;24.70;99.90
45409;DHT22;31162;51.076;3.784;2023-06-22T06:32:14;24.80;99.90
45409;DHT22;31162;51.076;3.784;2023-06-22T06:34:40;25.00;99.90
45409;DHT22;31162;51.076;3.784;2023-06-22T06:37:06;25.00;99.90
45409;DHT22;31162;51.076;3.784;2023-06-22T06:39:31;24.90;99.90
45409;DHT22;31162;51.076;3.784;2023-06-22T06:41:57;25.00;99.90
45409;DHT22;31162;51.076;3.784;2023-06-22T06:44:23;25.00;99.90
45409;DHT22;31162;51.076;3.784;2023-06-22T06:46:48;25.20;99.90
45409;DHT22;31162;51.076;3.784;2023-06-22T06:49:14;25.40;99.90
45409;DHT22;31162;51.076;3.784;2023-06-22T06:51:39;25.40;99.90
45409;DHT22;31162;51.076;3.784;2023-06-22T06:54:05;25.40;99.90
45409;DHT22;31162;51.076;3.784;2023-06-22T06:56:31;25.50;99.90
45409;DHT22;31162;51.076;3.784;2023-06-22T06:58:58;25.70;99.90
45409;DHT22;31162;51.076;3.784;2023-06-22T07:01:24;25.70;99.90
45409;DHT22;31162;51.076;3.784;2023-06-22T07:03:50;25.80;99.90
45409;DHT22;31162;51.076;3.784;2023-06-22T07:06:16;25.60;99.90
45409;DHT22;31162;51.076;3.784;2023-06-22T07:08:42;25.70;99.90
45409;DHT22;31162;51.076;3.784;2023-06-22T07:11:08;25.50;99.90
45409;DHT22;31162;51.076;3.784;2023-06-22T07:13:34;25.50;99.90
45409;DHT22;31162;51.076;3.784;2023-06-22T07:15:59;25.40;99.90
45409;DHT22;31162;51.076;3.784;2023-06-22T07:18:25;25.50;99.90
45409;DHT22;31162;51.076;3.784;2023-06-22T07:20:52;25.50;99.90
45409;DHT22;31162;51.076;3.784;2023-06-22T07:23:17;25.40;99.90
45409;DHT22;31162;51.076;3.784;2023-06-22T07:25:43;25.40;99.90
45409;DHT22;31162;51.076;3.784;2023-06-22T07:28:09;25.50;99.90
45409;DHT22;31162;51.076;3.784;2023-06-22T07:30:35;25.60;99.90
45409;DHT22;31162;51.076;3.784;2023-06-22T07:33:01;25.70;99.90
45409;DHT22;31162;51.076;3.784;2023-06-22T07:35:30;25.80;99.90
45409;DHT22;31162;51.076;3.784;2023-06-22T07:37:56;25.80;99.90
45409;DHT22;31162;51.076;3.784;2023-06-22T07:40:21;25.80;99.90
45409;DHT22;31162;51.076;3.784;2023-06-22T07:42:47;25.90;99.90
45409;DHT22;31162;51.076;3.784;2023-06-22T07:45:17;25.80;99.90
45409;DHT22;31162;51.076;3.784;2023-06-22T07:47:42;25.80;99.90
45409;DHT22;31162;51.076;3.784;2023-06-22T07:50:09;25.70;99.90
45409;DHT22;31162;51.076;3.784;2023-06-22T07:52:35;25.70;99.90
45409;DHT22;31162;51.076;3.784;2023-06-22T07:55:01;25.60;99.90
45409;DHT22;31162;51.076;3.784;2023-06-22T07:57:27;25.70;99.90
45409;DHT22;31162;51.076;3.784;2023-06-22T07:59:59;25.70;99.90
45409;DHT22;31162;51.076;3.784;2023-06-22T08:02:26;25.50;99.90
45409;DHT22;31162;51.076;3.784;2023-06-22T08:04:51;25.20;99.90
45409;DHT22;31162;51.076;3.784;2023-06-22T08:07:17;25.00;99.90
45409;DHT22;31162;51.076;3.784;2023-06-22T08:09:48;25.20;99.90
45409;DHT22;31162;51.076;3.784;2023-06-22T08:12:14;25.10;99.90
45409;DHT22;31162;51.076;3.784;2023-06-22T08:14:42;25.00;99.90
45409;DHT22;31162;51.076;3.784;2023-06-22T08:17:09;24.90;99.90
45409;DHT22;31162;51.076;3.784;2023-06-22T08:19:36;24.80;99.90
45409;DHT22;31162;51.076;3.784;2023-06-22T08:22:02;24.80;99.90
45409;DHT22;31162;51.076;3.784;2023-06-22T08:24:28;24.90;99.90
45409;DHT22;31162;51.076;3.784;2023-06-22T08:26:56;24.80;99.90
45409;DHT22;31162;51.076;3.784;2023-06-22T08:29:21;24.90;99.90
45409;DHT22;31162;51.076;3.784;2023-06-22T08:31:47;25.00;99.90
45409;DHT22;31162;51.076;3.784;2023-06-22T08:34:13;25.10;99.90
45409;DHT22;31162;51.076;3.784;2023-06-22T08:36:38;25.10;99.90
45409;DHT22;31162;51.076;3.784;2023-06-22T08:39:07;25.10;99.90
45409;DHT22;31162;51.076;3.784;2023-06-22T08:41:33;25.20;99.90
45409;DHT22;31162;51.076;3.784;2023-06-22T08:43:59;24.90;99.90
45409;DHT22;31162;51.076;3.784;2023-06-22T08:46:25;24.70;99.90
45409;DHT22;31162;51.076;3.784;2023-06-22T08:48:56;24.50;99.90
45409;DHT22;31162;51.076;3.784;2023-06-22T08:51:23;24.60;99.90
45409;DHT22;31162;51.076;3.784;2023-06-22T08:53:49;24.60;99.90
45409;DHT22;31162;51.076;3.784;2023-06-22T08:56:14;24.60;99.90
45409;DHT22;31162;51.076;3.784;2023-06-22T08:58:40;24.70;99.90
45409;DHT22;31162;51.076;3.784;2023-06-22T09:01:06;24.60;99.90
45409;DHT22;31162;51.076;3.784;2023-06-22T09:03:32;24.70;99.90
45409;DHT22;31162;51.076;3.784;2023-06-22T09:05:58;24.90;99.90
45409;DHT22;31162;51.076;3.784;2023-06-22T09:08:24;24.90;99.90
45409;DHT22;31162;51.076;3.784;2023-06-22T09:10:50;25.10;99.90
45409;DHT22;31162;51.076;3.784;2023-06-22T09:13:15;24.90;99.90
45409;DHT22;31162;51.076;3.784;2023-06-22T09:15:41;25.00;99.90
45409;DHT22;31162;51.076;3.784;2023-06-22T09:18:10;24.90;99.90
45409;DHT22;31162;51.076;3.784;2023-06-22T09:20:36;24.70;99.90
45409;DHT22;31162;51.076;3.784;2023-06-22T09:23:02;24.60;99.90
45409;DHT22;31162;51.076;3.784;2023-06-22T09:25:27;24.50;99.90
45409;DHT22;31162;51.076;3.784;2023-06-22T09:27:53;24.40;99.90
45409;DHT22;31162;51.076;3.784;2023-06-22T09:30:19;24.30;99.90
45409;DHT22;31162;51.076;3.784;2023-06-22T09:32:44;24.30;99.90
45409;DHT22;31162;51.076;3.784;2023-06-22T09:35:10;24.30;99.90
45409;DHT22;31162;51.076;3.784;2023-06-22T09:37:38;24.30;99.90
45409;DHT22;31162;51.076;3.784;2023-06-22T09:40:04;24.10;99.90
45409;DHT22;31162;51.076;3.784;2023-06-22T09:42:35;23.90;99.90
45409;DHT22;31162;51.076;3.784;2023-06-22T09:45:01;23.80;99.90
45409;DHT22;31162;51.076;3.784;2023-06-22T09:47:27;23.80;99.90
45409;DHT22;31162;51.076;3.784;2023-06-22T09:49:53;23.60;99.90
45409;DHT22;31162;51.076;3.784;2023-06-22T09:52:21;23.40;99.90
45409;DHT22;31162;51.076;3.784;2023-06-22T09:54:46;23.20;99.90
45409;DHT22;31162;51.076;3.784;2023-06-22T09:57:12;23.10;99.90
45409;DHT22;31162;51.076;3.784;2023-06-22T09:59:38;23.00;99.90
45409;DHT22;31162;51.076;3.784;2023-06-22T10:02:06;22.80;99.90
45409;DHT22;31162;51.076;3.784;2023-06-22T10:04:33;22.50;99.90
45409;DHT22;31162;51.076;3.784;2023-06-22T10:06:58;22.30;99.90
45409;DHT22;31162;51.076;3.784;2023-06-22T10:09:24;22.20;99.90
45409;DHT22;31162;51.076;3.784;2023-06-22T10:11:49;22.10;99.90
45409;DHT22;31162;51.076;3.784;2023-06-22T10:14:15;21.80;99.90
45409;DHT22;31162;51.076;3.784;2023-06-22T10:16:42;21.60;99.90
45409;DHT22;31162;51.076;3.784;2023-06-22T10:19:07;21.40;99.90
45409;DHT22;31162;51.076;3.784;2023-06-22T10:21:33;21.40;99.90
45409;DHT22;31162;51.076;3.784;2023-06-22T10:24:00;21.50;99.90
45409;DHT22;31162;51.076;3.784;2023-06-22T10:26:34;21.60;99.90
45409;DHT22;31162;51.076;3.784;2023-06-22T10:29:01;21.50;99.90
45409;DHT22;31162;51.076;3.784;2023-06-22T10:31:27;21.50;99.90
45409;DHT22;31162;51.076;3.784;2023-06-22T10:33:54;21.60;99.90
45409;DHT22;31162;51.076;3.784;2023-06-22T10:36:19;21.50;99.90
45409;DHT22;31162;51.076;3.784;2023-06-22T10:38:45;21.50;99.90
45409;DHT22;31162;51.076;3.784;2023-06-22T10:41:12;21.60;99.90
45409;DHT22;31162;51.076;3.784;2023-06-22T10:43:38;21.70;99.90
45409;DHT22;31162;51.076;3.784;2023-06-22T10:46:04;21.50;99.90
45409;DHT22;31162;51.076;3.784;2023-06-22T10:48:29;21.40;99.90
45409;DHT22;31162;51.076;3.784;2023-06-22T10:50:55;21.60;99.90
45409;DHT22;31162;51.076;3.784;2023-06-22T10:53:21;21.80;99.90
45409;DHT22;31162;51.076;3.784;2023-06-22T10:55:47;21.80;99.90
45409;DHT22;31162;51.076;3.784;2023-06-22T10:58:13;22.00;99.90
45409;DHT22;31162;51.076;3.784;2023-06-22T11:00:38;22.10;99.90
45409;DHT22;31162;51.076;3.784;2023-06-22T11:03:04;22.10;99.90
45409;DHT22;31162;51.076;3.784;2023-06-22T11:05:30;22.00;99.90
45409;DHT22;31162;51.076;3.784;2023-06-22T11:07:55;21.80;99.90
45409;DHT22;31162;51.076;3.784;2023-06-22T11:10:21;21.50;99.90
45409;DHT22;31162;51.076;3.784;2023-06-22T11:12:47;21.50;99.90
45409;DHT22;31162;51.076;3.784;2023-06-22T11:15:13;21.40;99.90
45409;DHT22;31162;51.076;3.784;2023-06-22T11:17:38;21.40;99.90
45409;DHT22;31162;51.076;3.784;2023-06-22T11:20:05;21.30;99.90
45409;DHT22;31162;51.076;3.784;2023-06-22T11:22:37;21.10;99.90
45409;DHT22;31162;51.076;3.784;2023-06-22T11:25:03;21.10;99.90
45409;DHT22;31162;51.076;3.784;2023-06-22T11:27:29;20.90;99.90
45409;DHT22;31162;51.076;3.784;2023-06-22T11:29:54;20.80;99.90
45409;DHT22;31162;51.076;3.784;2023-06-22T11:32:20;20.80;99.90
45409;DHT22;31162;51.076;3.784;2023-06-22T11:34:46;20.80;99.90
45409;DHT22;31162;51.076;3.784;2023-06-22T11:37:11;20.70;99.90
45409;DHT22;31162;51.076;3.784;2023-06-22T11:39:37;20.60;99.90
45409;DHT22;31162;51.076;3.784;2023-06-22T11:42:03;20.50;99.90
45409;DHT22;31162;51.076;3.784;2023-06-22T11:44:28;20.30;99.90
45409;DHT22;31162;51.076;3.784;2023-06-22T11:46:54;20.40;99.90
45409;DHT22;31162;51.076;3.784;2023-06-22T11:49:20;20.30;99.90
45409;DHT22;31162;51.076;3.784;2023-06-22T11:51:45;20.30;99.90
45409;DHT22;31162;51.076;3.784;2023-06-22T11:54:11;20.30;99.90
45409;DHT22;31162;51.076;3.784;2023-06-22T11:56:36;20.30;99.90
45409;DHT22;31162;51.076;3.784;2023-06-22T11:59:02;20.30;99.90
45409;DHT22;31162;51.076;3.784;2023-06-22T12:01:28;20.30;99.90
45409;DHT22;31162;51.076;3.784;2023-06-22T12:03:53;20.20;99.90
45409;DHT22;31162;51.076;3.784;2023-06-22T12:06:19;20.40;99.90
45409;DHT22;31162;51.076;3.784;2023-06-22T12:08:44;20.40;99.90
45409;DHT22;31162;51.076;3.784;2023-06-22T12:11:10;20.40;99.90
45409;DHT22;31162;51.076;3.784;2023-06-22T12:13:36;20.60;99.90
45409;DHT22;31162;51.076;3.784;2023-06-22T12:16:01;20.80;99.90
45409;DHT22;31162;51.076;3.784;2023-06-22T12:18:27;20.80;99.90
45409;DHT22;31162;51.076;3.784;2023-06-22T12:20:53;20.70;99.90
45409;DHT22;31162;51.076;3.784;2023-06-22T12:23:18;20.80;99.90
45409;DHT22;31162;51.076;3.784;2023-06-22T12:25:45;20.80;99.90
45409;DHT22;31162;51.076;3.784;2023-06-22T12:28:11;20.90;99.90
45409;DHT22;31162;51.076;3.784;2023-06-22T12:30:36;21.00;99.90
45409;DHT22;31162;51.076;3.784;2023-06-22T12:33:02;21.10;99.90
45409;DHT22;31162;51.076;3.784;2023-06-22T12:35:28;21.10;99.90
45409;DHT22;31162;51.076;3.784;2023-06-22T12:37:53;21.00;99.90
45409;DHT22;31162;51.076;3.784;2023-06-22T12:40:19;21.00;99.90
45409;DHT22;31162;51.076;3.784;2023-06-22T12:42:45;20.90;99.90
45409;DHT22;31162;51.076;3.784;2023-06-22T12:45:11;20.90;99.90
45409;DHT22;31162;51.076;3.784;2023-06-22T12:47:36;20.90;99.90
45409;DHT22;31162;51.076;3.784;2023-06-22T12:50:02;20.90;99.90
45409;DHT22;31162;51.076;3.784;2023-06-22T12:52:30;21.00;99.90
45409;DHT22;31162;51.076;3.784;2023-06-22T12:54:59;20.90;99.90
45409;DHT22;31162;51.076;3.784;2023-06-22T12:57:25;20.90;99.90
45409;DHT22;31162;51.076;3.784;2023-06-22T12:59:51;20.90;99.90
45409;DHT22;31162;51.076;3.784;2023-06-22T13:02:16;21.00;99.90
45409;DHT22;31162;51.076;3.784;2023-06-22T13:04:42;21.20;99.90
45409;DHT22;31162;51.076;3.784;2023-06-22T13:07:08;21.20;99.90
45409;DHT22;31162;51.076;3.784;2023-06-22T13:09:36;21.10;99.90
45409;DHT22;31162;51.076;3.784;2023-06-22T13:12:04;21.00;99.90
45409;DHT22;31162;51.076;3.784;2023-06-22T13:14:30;21.10;99.90
45409;DHT22;31162;51.076;3.784;2023-06-22T13:16:56;21.10;99.90
45409;DHT22;31162;51.076;3.784;2023-06-22T13:19:22;21.20;99.90
45409;DHT22;31162;51.076;3.784;2023-06-22T13:21:47;21.20;99.90
45409;DHT22;31162;51.076;3.784;2023-06-22T13:24:13;21.20;99.90
45409;DHT22;31162;51.076;3.784;2023-06-22T13:26:38;21.30;99.90
45409;DHT22;31162;51.076;3.784;2023-06-22T13:29:04;21.30;99.90
45409;DHT22;31162;51.076;3.784;2023-06-22T13:31:30;21.40;99.90
45409;DHT22;31162;51.076;3.784;2023-06-22T13:33:55;21.50;99.90
45409;DHT22;31162;51.076;3.784;2023-06-22T13:36:21;21.50;99.90
45409;DHT22;31162;51.076;3.784;2023-06-22T13:38:48;21.40;99.90
45409;DHT22;31162;51.076;3.784;2023-06-22T13:41:14;21.60;99.90
45409;DHT22;31162;51.076;3.784;2023-06-22T13:43:40;21.60;99.90
45409;DHT22;31162;51.076;3.784;2023-06-22T13:46:05;21.70;99.90
45409;DHT22;31162;51.076;3.784;2023-06-22T13:48:31;22.00;99.90
45409;DHT22;31162;51.076;3.784;2023-06-22T13:50:57;22.30;99.90
45409;DHT22;31162;51.076;3.784;2023-06-22T13:53:24;22.70;99.90
45409;DHT22;31162;51.076;3.784;2023-06-22T13:55:51;23.10;99.90
45409;DHT22;31162;51.076;3.784;2023-06-22T13:58:17;23.60;99.90
45409;DHT22;31162;51.076;3.784;2023-06-22T14:00:42;23.80;99.90
45409;DHT22;31162;51.076;3.784;2023-06-22T14:03:08;23.90;99.90
45409;DHT22;31162;51.076;3.784;2023-06-22T14:05:33;23.90;99.90
45409;DHT22;31162;51.076;3.784;2023-06-22T14:07:59;23.90;99.90
45409;DHT22;31162;51.076;3.784;2023-06-22T14:10:25;23.80;99.90
45409;DHT22;31162;51.076;3.784;2023-06-22T14:12:50;23.80;99.90
45409;DHT22;31162;51.076;3.784;2023-06-22T14:15:16;23.90;99.90
45409;DHT22;31162;51.076;3.784;2023-06-22T14:17:42;23.90;99.90
45409;DHT22;31162;51.076;3.784;2023-06-22T14:20:08;23.70;99.90
45409;DHT22;31162;51.076;3.784;2023-06-22T14:22:34;23.70;99.90
45409;DHT22;31162;51.076;3.784;2023-06-22T14:25:01;23.60;99.90
45409;DHT22;31162;51.076;3.784;2023-06-22T14:27:26;23.50;99.90
45409;DHT22;31162;51.076;3.784;2023-06-22T14:29:52;23.30;99.90
45409;DHT22;31162;51.076;3.784;2023-06-22T14:32:18;23.20;99.90
45409;DHT22;31162;51.076;3.784;2023-06-22T14:34:44;23.30;99.90
45409;DHT22;31162;51.076;3.784;2023-06-22T14:37:10;23.60;99.90
45409;DHT22;31162;51.076;3.784;2023-06-22T14:39:36;23.90;99.90
45409;DHT22;31162;51.076;3.784;2023-06-22T14:42:02;24.50;99.90
45409;DHT22;31162;51.076;3.784;2023-06-22T14:44:29;25.00;99.90
45409;DHT22;31162;51.076;3.784;2023-06-22T14:46:58;25.50;99.90
45409;DHT22;31162;51.076;3.784;2023-06-22T14:49:23;25.90;99.90
45409;DHT22;31162;51.076;3.784;2023-06-22T14:51:49;26.30;99.90
45409;DHT22;31162;51.076;3.784;2023-06-22T14:54:15;26.60;99.90
45409;DHT22;31162;51.076;3.784;2023-06-22T14:56:40;26.60;99.90
45409;DHT22;31162;51.076;3.784;2023-06-22T14:59:06;26.70;99.90
45409;DHT22;31162;51.076;3.784;2023-06-22T15:01:32;26.50;99.90
45409;DHT22;31162;51.076;3.784;2023-06-22T15:03:58;26.30;99.90
45409;DHT22;31162;51.076;3.784;2023-06-22T15:06:23;26.10;99.90
45409;DHT22;31162;51.076;3.784;2023-06-22T15:08:49;25.70;99.90
45409;DHT22;31162;51.076;3.784;2023-06-22T15:11:15;25.70;99.90
45409;DHT22;31162;51.076;3.784;2023-06-22T15:13:41;25.80;99.90
45409;DHT22;31162;51.076;3.784;2023-06-22T15:16:08;25.80;99.90
45409;DHT22;31162;51.076;3.784;2023-06-22T15:18:34;25.60;99.90
45409;DHT22;31162;51.076;3.784;2023-06-22T15:21:01;25.60;99.90
45409;DHT22;31162;51.076;3.784;2023-06-22T15:23:28;25.50;99.90
45409;DHT22;31162;51.076;3.784;2023-06-22T15:25:55;25.50;99.90
45409;DHT22;31162;51.076;3.784;2023-06-22T15:28:21;25.60;99.90